| Date | Time | Temp. (oF) | Dew Point (oF) | Rel. Hum. (%) | Press. (in.) | Wind Dir. | Wind Speed (mph) | Hourly Rainfall (in.) |
|
|---|---|---|---|---|---|---|---|---|---|
| 1 | 04/12 | 00:00 | 63 | 63 | 100 | 29.68 | S | 3 | 0.00 |
| 2 | 04/11 | 23:00 | 63 | 63 | 100 | 29.71 | NNW | 9 | 0.12 |
| 3 | 04/11 | 22:00 | 63 | 62 | 98 | 29.71 | SSE | 3 | 0.05 |
| 4 | 04/11 | 21:00 | 64 | 62 | 96 | 29.73 | E | 5 | 0.19 |
| 5 | 04/11 | 20:00 | 68 | 62 | 82 | 29.74 | NNE | 2 | 0.02 |
| 6 | 04/11 | 19:00 | 71 | 60 | 70 | 29.73 | NE | 4 | 0.00 |
| 7 | 04/11 | 18:00 | 72 | 60 | 67 | 29.73 | SE | 3 | 0.00 |
| 8 | 04/11 | 17:00 | 73 | 60 | 66 | 29.75 | SE | 0 | 0.00 |
| 9 | 04/11 | 16:00 | 73 | 60 | 64 | 29.77 | SSW | 5 | 0.00 |
| 10 | 04/11 | 15:00 | 72 | 59 | 66 | 29.80 | S | 6 | 0.00 |
| 11 | 04/11 | 14:00 | 68 | 58 | 72 | 29.83 | SSW | 5 | 0.00 |
| 12 | 04/11 | 13:00 | 67 | 58 | 74 | 29.86 | SSW | 6 | 0.00 |
| 13 | 04/11 | 12:00 | 66 | 57 | 75 | 29.89 | SSE | 8 | 0.00 |
| 14 | 04/11 | 11:00 | 65 | 58 | 80 | 29.92 | E | 4 | 0.00 |
| 15 | 04/11 | 10:00 | 62 | 57 | 85 | 29.96 | SSW | 11 | 0.00 |
| 16 | 04/11 | 09:00 | 61 | 56 | 86 | 29.96 | SSW | 5 | 0.00 |
| 17 | 04/11 | 08:00 | 59 | 56 | 90 | 29.98 | ESE | 5 | 0.00 |
| 18 | 04/11 | 07:00 | 59 | 55 | 88 | 29.99 | S | 2 | 0.00 |
| 19 | 04/11 | 06:00 | 58 | 53 | 86 | 29.99 | SE | 3 | 0.00 |
| 20 | 04/11 | 05:00 | 59 | 53 | 82 | 29.99 | E | 4 | 0.00 |
| 21 | 04/11 | 04:00 | 59 | 53 | 81 | 30.00 | ESE | 4 | 0.00 |
| 22 | 04/11 | 03:00 | 59 | 52 | 79 | 30.02 | E | 2 | 0.00 |
| 23 | 04/11 | 02:00 | 60 | 52 | 76 | 30.02 | ENE | 5 | 0.00 |
| 24 | 04/11 | 01:00 | 61 | 52 | 73 | 30.03 | ENE | 3 | 0.00 |